createdAt,value
2017-06-01T00:01:20.492Z,63.20
2017-06-01T00:03:48.745Z,63.00
2017-06-01T00:06:17.027Z,64.00
2017-06-01T00:08:45.254Z,63.30
2017-06-01T00:11:13.496Z,62.90
2017-06-01T00:13:41.748Z,63.20
2017-06-01T00:16:09.978Z,63.10
2017-06-01T00:18:38.212Z,63.20
2017-06-01T00:21:06.467Z,63.00
2017-06-01T00:23:34.705Z,62.60
2017-06-01T00:26:02.995Z,62.60
2017-06-01T00:28:31.235Z,62.70
2017-06-01T00:30:59.492Z,63.80
2017-06-01T00:33:27.736Z,64.20
2017-06-01T00:35:55.969Z,63.80
2017-06-01T00:38:24.231Z,63.20
2017-06-01T00:40:52.463Z,62.90
2017-06-01T00:43:20.701Z,63.10
2017-06-01T00:45:48.933Z,63.10
2017-06-01T00:48:17.181Z,63.20
2017-06-01T00:50:45.411Z,63.40
2017-06-01T00:53:13.661Z,63.10
2017-06-01T00:55:41.912Z,63.20
2017-06-01T00:58:10.156Z,63.40
2017-06-01T01:00:38.387Z,63.40
2017-06-01T01:03:06.650Z,63.10
2017-06-01T01:05:34.880Z,63.50
2017-06-01T01:08:03.155Z,63.50
2017-06-01T01:10:31.388Z,63.50
2017-06-01T01:12:59.611Z,63.60
2017-06-01T01:15:27.855Z,63.70
2017-06-01T01:17:56.104Z,63.70
2017-06-01T01:20:24.344Z,63.50
2017-06-01T01:22:52.576Z,63.60
2017-06-01T01:25:20.820Z,63.80
2017-06-01T01:27:49.068Z,63.90
2017-06-01T01:30:17.325Z,63.70
2017-06-01T01:32:45.571Z,63.60
2017-06-01T01:35:13.905Z,63.60
2017-06-01T01:37:42.144Z,64.70
2017-06-01T01:40:10.401Z,64.90
2017-06-01T01:42:38.652Z,64.90
2017-06-01T01:45:06.881Z,64.40
2017-06-01T01:47:35.232Z,64.10
2017-06-01T01:50:03.511Z,64.80
2017-06-01T01:52:31.743Z,64.20
2017-06-01T01:54:59.980Z,64.10
2017-06-01T01:57:28.221Z,64.10
2017-06-01T01:59:56.467Z,65.30
2017-06-01T02:02:24.724Z,65.40
2017-06-01T02:04:52.964Z,65.50
2017-06-01T02:07:21.216Z,65.00
2017-06-01T02:09:49.469Z,64.80
2017-06-01T02:12:17.725Z,65.00
2017-06-01T02:14:45.968Z,64.80
2017-06-01T02:17:14.213Z,64.70
2017-06-01T02:19:42.484Z,64.50
2017-06-01T02:22:10.797Z,64.50
2017-06-01T02:24:39.043Z,64.50
2017-06-01T02:27:07.301Z,63.90
2017-06-01T02:29:35.616Z,64.00
2017-06-01T02:32:03.939Z,64.10
2017-06-01T02:34:32.177Z,64.20
2017-06-01T02:37:00.429Z,63.80
2017-06-01T02:39:28.675Z,63.70
2017-06-01T02:41:56.932Z,63.70
2017-06-01T02:44:25.206Z,63.70
2017-06-01T02:46:53.465Z,63.90
2017-06-01T02:49:21.716Z,63.30
2017-06-01T02:51:49.960Z,63.20
2017-06-01T02:54:18.257Z,63.50
2017-06-01T02:56:46.505Z,63.30
2017-06-01T02:59:14.773Z,63.30
2017-06-01T03:01:43.005Z,63.30
2017-06-01T03:04:11.256Z,63.50
2017-06-01T03:06:39.497Z,63.80
2017-06-01T03:09:07.729Z,63.70
2017-06-01T03:11:35.975Z,63.90
2017-06-01T03:14:04.213Z,63.90
2017-06-01T03:16:32.452Z,64.20
2017-06-01T03:19:00.708Z,65.40
2017-06-01T03:21:28.964Z,65.40
2017-06-01T03:23:57.209Z,65.10
2017-06-01T03:26:25.446Z,65.00
2017-06-01T03:28:53.693Z,64.60
2017-06-01T03:31:21.956Z,64.50
2017-06-01T03:33:50.210Z,64.60
2017-06-01T03:36:18.471Z,65.10
2017-06-01T03:38:46.708Z,65.10
2017-06-01T03:41:14.964Z,65.40
2017-06-01T03:43:43.207Z,65.30
2017-06-01T03:46:11.447Z,65.40
2017-06-01T03:48:39.693Z,65.30
2017-06-01T03:51:07.943Z,65.20
2017-06-01T03:53:36.186Z,65.20
2017-06-01T03:56:04.419Z,65.00
2017-06-01T03:58:32.664Z,65.00
2017-06-01T04:01:00.914Z,65.50
2017-06-01T04:03:29.153Z,65.50
2017-06-01T04:05:57.385Z,65.40
2017-06-01T04:08:25.645Z,64.90
2017-06-01T04:10:53.949Z,64.70
2017-06-01T04:13:22.186Z,64.50
2017-06-01T04:15:50.408Z,64.50
2017-06-01T04:18:18.668Z,63.90
2017-06-01T04:20:46.940Z,63.60
2017-06-01T04:23:15.216Z,64.00
2017-06-01T04:25:43.475Z,63.80
2017-06-01T04:28:11.707Z,63.80
2017-06-01T04:30:39.951Z,63.90
2017-06-01T04:33:08.193Z,64.00
2017-06-01T04:35:36.440Z,64.70
2017-06-01T04:38:04.670Z,64.10
2017-06-01T04:40:32.915Z,63.30
2017-06-01T04:43:01.142Z,63.50
2017-06-01T04:45:31.995Z,63.30
2017-06-01T04:48:00.242Z,63.20
2017-06-01T04:50:28.485Z,63.00
2017-06-01T04:52:56.723Z,62.80
2017-06-01T04:55:31.574Z,62.80
2017-06-01T04:57:59.816Z,62.80
2017-06-01T05:00:28.081Z,62.80
2017-06-01T05:02:56.322Z,62.50
2017-06-01T05:05:24.565Z,62.70
2017-06-01T05:07:52.830Z,62.70
2017-06-01T05:10:21.060Z,62.30
2017-06-01T05:12:49.305Z,63.30
2017-06-01T05:15:17.549Z,62.30
2017-06-01T05:17:45.808Z,62.10
2017-06-01T05:20:14.059Z,61.80
2017-06-01T05:22:42.321Z,61.70
2017-06-01T05:25:10.581Z,62.40
2017-06-01T05:27:38.825Z,61.50
2017-06-01T05:30:07.055Z,61.60
2017-06-01T05:32:35.299Z,61.90
2017-06-01T05:35:04.376Z,62.00
2017-06-01T05:37:32.624Z,61.20
2017-06-01T05:40:00.859Z,61.50
2017-06-01T05:42:29.135Z,61.00
2017-06-01T05:44:57.376Z,60.40
2017-06-01T05:47:25.615Z,60.30
2017-06-01T05:49:53.896Z,60.60
2017-06-01T05:52:22.143Z,60.80
2017-06-01T05:54:50.413Z,60.90
2017-06-01T05:57:18.673Z,61.00
2017-06-01T05:59:46.940Z,60.90
2017-06-01T06:02:15.167Z,60.40
2017-06-01T06:04:43.411Z,60.40
2017-06-01T06:07:11.641Z,59.90
2017-06-01T06:09:39.891Z,60.40
2017-06-01T06:12:08.144Z,60.30
2017-06-01T06:14:36.546Z,60.00
2017-06-01T06:17:07.871Z,59.60
2017-06-01T06:19:36.154Z,59.50
2017-06-01T06:22:04.493Z,59.70
2017-06-01T06:24:32.764Z,59.70
2017-06-01T06:27:01.028Z,60.90
2017-06-01T06:29:29.281Z,59.90
2017-06-01T06:31:57.555Z,59.10
2017-06-01T06:34:25.804Z,58.70
2017-06-01T06:36:54.064Z,58.40
2017-06-01T06:39:22.310Z,58.00
2017-06-01T06:41:50.555Z,59.40
2017-06-01T06:44:18.036Z,59.40
2017-06-01T06:46:46.297Z,58.90
2017-06-01T06:49:14.571Z,58.40
2017-06-01T06:51:42.817Z,58.80
2017-06-01T06:54:11.075Z,61.10
2017-06-01T06:56:39.341Z,60.10
2017-06-01T06:59:07.584Z,60.30
2017-06-01T07:01:35.825Z,59.60
2017-06-01T07:04:04.075Z,59.80
2017-06-01T07:06:32.337Z,57.70
2017-06-01T07:09:00.579Z,57.70
2017-06-01T07:11:28.828Z,56.60
2017-06-01T07:13:57.069Z,55.70
2017-06-01T07:16:28.563Z,56.30
2017-06-01T07:18:56.921Z,56.80
2017-06-01T07:21:25.161Z,57.10
2017-06-01T07:23:53.403Z,57.00
2017-06-01T07:26:21.644Z,57.20
2017-06-01T07:28:49.888Z,57.10
2017-06-01T07:31:18.137Z,56.80
2017-06-01T07:33:46.375Z,57.60
2017-06-01T07:36:14.625Z,57.70
2017-06-01T07:38:42.876Z,57.50
2017-06-01T07:41:11.108Z,57.90
2017-06-01T07:43:39.360Z,57.40
2017-06-01T07:46:07.616Z,57.30
2017-06-01T07:48:35.875Z,56.70
2017-06-01T07:51:04.111Z,57.00
2017-06-01T07:53:32.361Z,56.10
2017-06-01T07:56:00.929Z,54.70
2017-06-01T07:58:29.154Z,53.10
2017-06-01T08:00:57.395Z,52.60
2017-06-01T08:03:25.656Z,50.70
2017-06-01T08:05:53.919Z,50.20
2017-06-01T08:08:22.172Z,49.40
2017-06-01T08:10:50.420Z,49.10
2017-06-01T08:13:18.671Z,50.20
2017-06-01T08:15:46.928Z,49.40
2017-06-01T08:18:15.176Z,49.00
2017-06-01T08:20:43.412Z,49.00
2017-06-01T08:23:11.659Z,49.50
2017-06-01T08:25:39.913Z,48.90
2017-06-01T08:28:08.174Z,49.20
2017-06-01T08:30:36.431Z,48.70
2017-06-01T08:33:04.696Z,49.10
2017-06-01T08:35:32.933Z,49.80
2017-06-01T08:38:01.183Z,50.20
2017-06-01T08:40:29.421Z,50.80
2017-06-01T08:42:57.656Z,51.10
2017-06-01T08:45:31.816Z,51.00
2017-06-01T08:48:00.057Z,51.90
2017-06-01T08:50:28.304Z,51.40
2017-06-01T08:52:56.543Z,51.20
2017-06-01T08:55:24.813Z,50.70
2017-06-01T08:57:53.069Z,50.90
2017-06-01T09:00:21.296Z,51.50
2017-06-01T09:02:49.539Z,50.50
2017-06-01T09:05:18.222Z,50.70
2017-06-01T09:07:46.489Z,51.40
2017-06-01T09:10:14.721Z,50.80
2017-06-01T09:12:42.947Z,51.70
2017-06-01T09:15:11.200Z,52.00
2017-06-01T09:17:39.424Z,51.00
2017-06-01T09:20:07.682Z,50.10
2017-06-01T09:22:35.907Z,49.20
2017-06-01T09:25:04.145Z,49.00
2017-06-01T09:27:32.384Z,49.70
2017-06-01T09:30:00.655Z,49.20
2017-06-01T09:32:28.907Z,49.50
2017-06-01T09:34:57.156Z,49.50
2017-06-01T09:37:25.452Z,49.60
2017-06-01T09:39:53.687Z,50.20
2017-06-01T09:42:21.932Z,50.30
2017-06-01T09:44:50.168Z,49.00
2017-06-01T09:47:18.428Z,48.10
2017-06-01T09:49:46.664Z,49.20
2017-06-01T09:52:14.908Z,49.20
2017-06-01T09:54:43.136Z,49.60
2017-06-01T09:57:11.377Z,48.10
2017-06-01T09:59:39.620Z,49.00
2017-06-01T10:02:07.859Z,47.90
2017-06-01T10:04:36.107Z,47.40
2017-06-01T10:07:04.368Z,49.00
2017-06-01T10:09:32.607Z,46.00
2017-06-01T10:12:00.861Z,47.40
2017-06-01T10:14:29.104Z,45.40
2017-06-01T10:16:57.380Z,46.00
2017-06-01T10:19:25.628Z,44.40
2017-06-01T10:21:53.868Z,44.80
2017-06-01T10:24:22.103Z,45.10
2017-06-01T10:26:50.351Z,44.50
2017-06-01T10:29:18.608Z,44.40
2017-06-01T10:31:46.852Z,45.40
2017-06-01T10:34:15.092Z,44.70
2017-06-01T10:36:43.328Z,45.50
2017-06-01T10:39:11.585Z,45.10
2017-06-01T10:41:39.828Z,44.50
2017-06-01T10:44:08.140Z,44.70
2017-06-01T10:46:36.379Z,43.60
2017-06-01T10:49:04.615Z,45.40
2017-06-01T10:51:32.848Z,44.00
2017-06-01T10:54:01.111Z,44.10
2017-06-01T10:56:29.363Z,43.80
2017-06-01T10:58:57.618Z,44.70
2017-06-01T11:01:25.872Z,44.50
2017-06-01T11:03:54.119Z,43.50
2017-06-01T11:06:22.360Z,44.50
2017-06-01T11:08:50.617Z,43.90
2017-06-01T11:11:18.857Z,42.70
2017-06-01T11:13:47.091Z,42.80
2017-06-01T11:16:15.331Z,44.10
2017-06-01T11:18:43.564Z,43.40
2017-06-01T11:21:11.810Z,43.10
2017-06-01T11:23:40.064Z,43.80
2017-06-01T11:26:08.308Z,43.10
2017-06-01T11:28:36.535Z,43.10
2017-06-01T11:31:04.790Z,43.20
2017-06-01T11:33:36.034Z,43.50
2017-06-01T11:36:04.277Z,43.00
2017-06-01T11:38:32.528Z,42.50
2017-06-01T11:41:00.764Z,42.90
2017-06-01T11:43:29.026Z,43.10
2017-06-01T11:45:57.256Z,42.60
2017-06-01T11:48:25.499Z,42.50
2017-06-01T11:50:53.741Z,42.30
2017-06-01T11:53:21.976Z,42.90
2017-06-01T11:55:50.220Z,42.20
2017-06-01T11:58:18.484Z,41.50
2017-06-01T12:00:46.727Z,42.00
2017-06-01T12:03:14.967Z,41.20
2017-06-01T12:05:43.196Z,41.50
2017-06-01T12:08:11.690Z,42.60
2017-06-01T12:10:39.931Z,42.20
2017-06-01T12:13:08.187Z,42.90
2017-06-01T12:15:36.425Z,41.60
2017-06-01T12:18:04.669Z,41.80
2017-06-01T12:20:32.938Z,42.20
2017-06-01T12:25:54.911Z,42.10
2017-06-01T12:28:23.193Z,42.60
2017-06-01T12:30:51.451Z,42.10
2017-06-01T12:33:19.690Z,42.00
2017-06-01T12:35:47.933Z,41.70
2017-06-01T12:38:16.159Z,41.50
2017-06-01T12:40:44.669Z,41.60
2017-06-01T12:43:12.900Z,40.90
2017-06-01T12:45:41.154Z,41.40
2017-06-01T12:48:09.428Z,40.80
2017-06-01T12:50:37.670Z,40.80
2017-06-01T12:53:05.896Z,41.30
2017-06-01T12:55:34.155Z,40.10
2017-06-01T12:58:02.417Z,41.00
2017-06-01T13:00:31.183Z,41.50
2017-06-01T13:02:59.419Z,40.40
2017-06-01T13:11:18.517Z,40.70
2017-06-01T13:13:46.760Z,40.90
2017-06-01T13:16:14.991Z,40.60
2017-06-01T13:18:43.228Z,40.00
2017-06-01T13:21:11.530Z,39.80
2017-06-01T13:23:39.764Z,40.90
2017-06-01T13:26:08.052Z,40.80
2017-06-01T13:28:36.276Z,41.90
2017-06-01T13:31:04.507Z,41.00
2017-06-01T13:33:32.771Z,40.30
2017-06-01T13:36:01.010Z,39.90
2017-06-01T13:38:29.255Z,41.00
2017-06-01T13:40:57.496Z,41.10
2017-06-01T13:43:25.828Z,39.00
2017-06-01T13:45:54.038Z,39.00
2017-06-01T13:48:22.284Z,38.30
2017-06-01T13:50:50.534Z,39.10
2017-06-01T13:53:18.772Z,39.00
2017-06-01T13:55:47.021Z,39.80
2017-06-01T13:58:15.259Z,37.40
2017-06-01T14:00:43.494Z,38.10
2017-06-01T14:03:11.759Z,38.50
2017-06-01T14:05:40.019Z,38.40
2017-06-01T14:08:11.726Z,38.00
2017-06-01T14:10:39.993Z,38.20
2017-06-01T14:13:08.240Z,39.50
2017-06-01T14:15:36.489Z,39.80
2017-06-01T14:18:04.748Z,39.60
2017-06-01T14:20:33.016Z,39.30
2017-06-01T14:23:01.261Z,39.10
2017-06-01T14:25:29.505Z,39.50
2017-06-01T14:27:57.734Z,39.60
2017-06-01T14:30:25.981Z,39.80
2017-06-01T14:32:54.220Z,40.20
2017-06-01T14:35:23.419Z,40.90
2017-06-01T14:37:51.674Z,40.50
2017-06-01T14:40:19.935Z,40.40
2017-06-01T14:42:48.172Z,40.60
2017-06-01T14:45:16.444Z,40.10
2017-06-01T14:47:44.692Z,39.70
2017-06-01T14:50:12.935Z,39.20
2017-06-01T14:52:41.171Z,39.80
2017-06-01T14:55:09.404Z,39.90
2017-06-01T14:57:37.671Z,39.40
2017-06-01T15:00:05.915Z,39.80
2017-06-01T15:02:34.169Z,40.20
2017-06-01T15:05:02.421Z,40.70
2017-06-01T15:07:30.660Z,41.40
2017-06-01T15:09:58.884Z,41.00
2017-06-01T15:12:27.143Z,41.00
2017-06-01T15:14:55.403Z,41.40
2017-06-01T15:17:23.643Z,40.70
2017-06-01T15:19:51.921Z,40.20
2017-06-01T15:22:20.184Z,40.40
2017-06-01T15:24:48.424Z,39.70
2017-06-01T15:27:16.659Z,39.50
2017-06-01T15:29:44.965Z,39.70
2017-06-01T15:32:13.196Z,39.60
2017-06-01T15:34:41.433Z,39.00
2017-06-01T15:37:09.659Z,38.70
2017-06-01T15:39:37.905Z,39.40
2017-06-01T15:42:06.133Z,39.20
2017-06-01T15:44:34.406Z,38.30
2017-06-01T15:47:02.636Z,38.00
2017-06-01T15:49:30.895Z,37.50
2017-06-01T15:51:59.136Z,37.30
2017-06-01T15:54:27.387Z,37.80
2017-06-01T15:56:55.623Z,37.10
2017-06-01T15:59:23.897Z,36.80
2017-06-01T16:01:52.164Z,36.70
2017-06-01T16:04:20.398Z,36.60
2017-06-01T16:06:48.649Z,36.70
2017-06-01T16:09:16.880Z,35.40
2017-06-01T16:11:45.130Z,35.30
2017-06-01T16:14:13.355Z,35.60
2017-06-01T16:16:41.593Z,34.50
2017-06-01T16:19:09.856Z,34.70
2017-06-01T16:21:38.107Z,34.70
2017-06-01T16:24:06.349Z,34.00
2017-06-01T16:26:34.587Z,34.00
2017-06-01T16:29:02.832Z,32.80
2017-06-01T16:31:31.090Z,32.70
2017-06-01T16:33:59.345Z,31.90
2017-06-01T16:36:30.513Z,32.30
2017-06-01T16:38:58.751Z,31.50
2017-06-01T16:41:26.985Z,31.40
2017-06-01T16:43:55.228Z,30.00
2017-06-01T16:46:23.489Z,29.90
2017-06-01T16:48:51.750Z,31.10
2017-06-01T16:51:19.985Z,32.80
2017-06-01T16:53:48.255Z,34.40
2017-06-01T16:56:16.576Z,34.70
2017-06-01T16:58:44.842Z,33.20
2017-06-01T17:01:13.082Z,32.60
2017-06-01T17:03:41.339Z,31.80
2017-06-01T17:06:09.576Z,32.90
2017-06-01T17:08:37.865Z,33.30
2017-06-01T17:11:06.107Z,35.20
2017-06-01T17:13:34.349Z,36.30
2017-06-01T17:16:02.599Z,36.20
2017-06-01T17:18:30.860Z,36.60
2017-06-01T17:20:59.111Z,37.40
2017-06-01T17:23:27.336Z,38.50
2017-06-01T17:25:55.593Z,40.20
2017-06-01T17:31:17.936Z,41.50
2017-06-01T17:33:46.175Z,41.10
2017-06-01T17:36:14.437Z,41.60
2017-06-01T17:38:42.673Z,42.10
2017-06-01T17:41:10.920Z,42.30
2017-06-01T17:43:39.165Z,42.40
2017-06-01T17:46:07.434Z,42.90
2017-06-01T17:48:35.723Z,43.20
2017-06-01T17:51:03.963Z,42.90
2017-06-01T17:53:32.212Z,42.90
2017-06-01T17:56:00.486Z,44.70
2017-06-01T17:58:28.723Z,43.50
2017-06-01T18:00:57.068Z,44.60
2017-06-01T18:03:25.346Z,45.00
2017-06-01T18:05:53.598Z,43.80
2017-06-01T18:08:21.835Z,45.20
2017-06-01T18:10:50.072Z,44.50
2017-06-01T18:13:18.340Z,44.60
2017-06-01T18:15:46.586Z,43.90
2017-06-01T18:18:14.846Z,44.90
2017-06-01T18:23:37.533Z,46.20
2017-06-01T18:26:05.768Z,45.90
2017-06-01T18:28:34.065Z,45.40
2017-06-01T18:31:02.303Z,45.00
2017-06-01T18:33:30.552Z,45.70
2017-06-01T18:35:58.796Z,46.50
2017-06-01T18:38:27.039Z,46.20
2017-06-01T18:40:55.284Z,47.20
2017-06-01T18:43:23.539Z,47.40
2017-06-01T18:45:51.810Z,47.90
2017-06-01T18:48:20.059Z,48.30
2017-06-01T18:50:48.310Z,48.20
2017-06-01T18:53:16.535Z,49.10
2017-06-01T18:55:44.807Z,48.90
2017-06-01T18:58:13.111Z,48.70
2017-06-01T19:00:41.395Z,49.00
2017-06-01T19:03:09.637Z,49.30
2017-06-01T19:05:37.930Z,49.70
2017-06-01T19:08:06.171Z,50.00
2017-06-01T19:10:34.401Z,49.90
2017-06-01T19:13:02.653Z,50.40
2017-06-01T19:15:30.899Z,50.50
2017-06-01T19:17:59.151Z,50.40
2017-06-01T19:20:27.439Z,50.50
2017-06-01T19:22:55.748Z,51.50
2017-06-01T19:25:23.986Z,51.00
2017-06-01T19:27:52.213Z,51.10
2017-06-01T19:30:20.462Z,51.60
2017-06-01T19:32:48.694Z,51.10
2017-06-01T19:35:16.969Z,51.30
2017-06-01T19:37:45.215Z,51.60
2017-06-01T19:40:13.466Z,51.60
2017-06-01T19:42:41.711Z,51.20
2017-06-01T19:45:09.961Z,51.10
2017-06-01T19:47:38.195Z,51.00
2017-06-01T19:50:06.436Z,51.00
2017-06-01T19:52:34.699Z,52.40
2017-06-01T19:55:02.961Z,52.80
2017-06-01T19:57:31.202Z,53.00
2017-06-01T19:59:59.444Z,52.90
2017-06-01T20:02:27.697Z,52.70
2017-06-01T20:04:55.965Z,52.90
2017-06-01T20:07:24.208Z,53.70
2017-06-01T20:09:52.467Z,54.70
2017-06-01T20:12:20.730Z,55.00
2017-06-01T20:14:48.960Z,54.80
2017-06-01T20:17:17.214Z,53.50
2017-06-01T20:19:45.452Z,53.50
2017-06-01T20:22:13.692Z,53.80
2017-06-01T20:24:41.944Z,53.40
2017-06-01T20:27:10.188Z,53.80
2017-06-01T20:29:38.463Z,53.80
2017-06-01T20:32:06.718Z,54.20
2017-06-01T20:34:34.956Z,54.40
2017-06-01T20:37:03.245Z,54.50
2017-06-01T20:39:31.493Z,54.30
2017-06-01T20:41:59.737Z,54.10
2017-06-01T20:44:27.999Z,55.30
2017-06-01T20:46:56.239Z,55.40
2017-06-01T20:49:24.514Z,55.00
2017-06-01T20:51:52.739Z,55.00
2017-06-01T20:54:20.980Z,55.40
2017-06-01T20:56:49.228Z,55.80
2017-06-01T20:59:17.484Z,56.00
2017-06-01T21:01:45.726Z,56.40
2017-06-01T21:04:13.982Z,56.70
2017-06-01T21:06:42.231Z,57.20
2017-06-01T21:09:10.487Z,56.50
2017-06-01T21:11:38.740Z,56.90
2017-06-01T21:14:06.978Z,57.10
2017-06-01T21:16:35.219Z,56.50
2017-06-01T21:19:03.480Z,56.20
2017-06-01T21:21:31.719Z,56.10
2017-06-01T21:23:59.959Z,56.00
2017-06-01T21:26:28.197Z,56.10
2017-06-01T21:28:56.620Z,56.10
2017-06-01T21:31:24.867Z,56.40
2017-06-01T21:33:53.115Z,56.60
2017-06-01T21:36:21.351Z,56.50
2017-06-01T21:38:49.625Z,56.60
2017-06-01T21:41:17.871Z,56.20
2017-06-01T21:43:46.134Z,56.30
2017-06-01T21:46:14.383Z,56.50
2017-06-01T21:48:42.641Z,57.00
2017-06-01T21:51:10.875Z,56.60
2017-06-01T21:53:39.112Z,57.00
2017-06-01T21:56:07.383Z,56.90
2017-06-01T21:58:35.632Z,56.90
2017-06-01T22:01:03.871Z,57.00
2017-06-01T22:03:32.121Z,56.80
2017-06-01T22:06:02.007Z,56.70
2017-06-01T22:08:30.247Z,57.50
2017-06-01T22:11:00.251Z,57.30
2017-06-01T22:13:28.500Z,57.50
2017-06-01T22:15:56.754Z,57.60
2017-06-01T22:18:24.983Z,57.60
2017-06-01T22:20:53.216Z,57.80
2017-06-01T22:23:29.432Z,57.80
2017-06-01T22:25:58.636Z,58.00
2017-06-01T22:28:26.877Z,58.00
2017-06-01T22:30:55.126Z,57.70
2017-06-01T22:33:23.377Z,57.70
2017-06-01T22:35:51.629Z,57.50
2017-06-01T22:38:19.880Z,57.50
2017-06-01T22:40:48.117Z,57.50
2017-06-01T22:43:16.385Z,57.70
2017-06-01T22:45:44.628Z,57.70
2017-06-01T22:48:12.857Z,57.70
2017-06-01T22:50:40.349Z,57.70
2017-06-01T22:53:08.592Z,58.30
2017-06-01T22:55:36.876Z,58.40
2017-06-01T22:58:05.104Z,58.30
2017-06-01T23:00:33.360Z,58.20
2017-06-01T23:03:02.412Z,58.60
2017-06-01T23:05:30.669Z,59.50
2017-06-01T23:07:58.896Z,59.00
2017-06-01T23:10:27.136Z,58.80
2017-06-01T23:12:55.379Z,58.50
2017-06-01T23:15:23.623Z,58.50
2017-06-01T23:17:51.858Z,58.60
2017-06-01T23:20:20.121Z,58.70
2017-06-01T23:22:48.349Z,58.80
2017-06-01T23:25:16.592Z,59.10
2017-06-01T23:27:44.836Z,59.20
2017-06-01T23:30:13.070Z,59.30
2017-06-01T23:32:41.319Z,59.60
2017-06-01T23:35:10.802Z,61.30
2017-06-01T23:37:39.108Z,61.80
2017-06-01T23:40:07.357Z,61.00
2017-06-01T23:42:35.603Z,61.00
2017-06-01T23:45:04.249Z,60.40
2017-06-01T23:47:32.484Z,60.20
2017-06-01T23:50:00.720Z,60.60
2017-06-01T23:52:28.960Z,60.80
2017-06-01T23:54:57.211Z,62.20
2017-06-01T23:57:25.477Z,63.10
2017-06-01T23:59:53.709Z,63.30
